sensor_id;sensor_type;location;lat;lon;timestamp;pressure;altitude;pressure_sealevel;temperature;humidity
76632;BME280;65526;48.578;-4.520;2022-12-29T00:00:04;100156.19;;;10.70;79.17
76632;BME280;65526;48.578;-4.520;2022-12-29T00:02:38;100142.97;;;10.83;79.83
76632;BME280;65526;48.578;-4.520;2022-12-29T00:05:05;99560.97;;;6.81;78.86
76632;BME280;65526;48.578;-4.520;2022-12-29T00:07:31;100159.78;;;10.70;79.81
76632;BME280;65526;48.578;-4.520;2022-12-29T00:09:58;100143.03;;;10.67;79.53
76632;BME280;65526;48.578;-4.520;2022-12-29T00:12:24;100189.41;;;10.82;79.81
76632;BME280;65526;48.578;-4.520;2022-12-29T00:14:50;99922.56;;;9.09;79.35
76632;BME280;65526;48.578;-4.520;2022-12-29T00:17:35;99773.00;;;7.99;79.33
76632;BME280;65526;48.578;-4.520;2022-12-29T00:20:01;99809.47;;;8.48;79.59
76632;BME280;65526;48.578;-4.520;2022-12-29T00:22:46;99929.91;;;9.01;79.39
76632;BME280;65526;48.578;-4.520;2022-12-29T00:25:31;99924.25;;;9.13;78.89
76632;BME280;65526;48.578;-4.520;2022-12-29T00:28:16;99871.53;;;8.63;78.62
76632;BME280;65526;48.578;-4.520;2022-12-29T00:31:01;99713.38;;;7.86;78.69
76632;BME280;65526;48.578;-4.520;2022-12-29T00:33:45;99874.56;;;8.58;78.64
76632;BME280;65526;48.578;-4.520;2022-12-29T00:36:34;99710.34;;;7.91;78.16
76632;BME280;65526;48.578;-4.520;2022-12-29T00:39:09;99914.31;;;8.97;75.92
76632;BME280;65526;48.578;-4.520;2022-12-29T00:41:55;100193.94;;;10.36;75.98
76632;BME280;65526;48.578;-4.520;2022-12-29T00:44:39;100237.94;;;10.18;77.92
76632;BME280;65526;48.578;-4.520;2022-12-29T00:47:06;100136.13;;;9.75;78.67
76632;BME280;65526;48.578;-4.520;2022-12-29T00:49:32;99689.00;;;7.16;78.99
76632;BME280;65526;48.578;-4.520;2022-12-29T00:52:11;100042.06;;;8.92;79.02
76632;BME280;65526;48.578;-4.520;2022-12-29T00:54:39;100144.25;;;10.00;79.37
76632;BME280;65526;48.578;-4.520;2022-12-29T00:57:09;99652.41;;;6.92;78.38
76632;BME280;65526;48.578;-4.520;2022-12-29T00:59:37;99479.72;;;5.83;78.28
76632;BME280;65526;48.578;-4.520;2022-12-29T01:02:03;99975.03;;;8.43;78.67
76632;BME280;65526;48.578;-4.520;2022-12-29T01:04:30;99425.94;;;5.49;77.88
76632;BME280;65526;48.578;-4.520;2022-12-29T01:06:56;100156.34;;;9.91;77.02
76632;BME280;65526;48.578;-4.520;2022-12-29T01:09:23;100010.81;;;9.07;76.80
76632;BME280;65526;48.578;-4.520;2022-12-29T01:12:09;99961.25;;;8.74;75.60
76632;BME280;65526;48.578;-4.520;2022-12-29T01:14:36;99450.94;;;5.68;75.61
76632;BME280;65526;48.578;-4.520;2022-12-29T01:17:03;99407.59;;;5.41;75.60
76632;BME280;65526;48.578;-4.520;2022-12-29T01:19:30;99453.06;;;5.35;74.49
76632;BME280;65526;48.578;-4.520;2022-12-29T01:21:57;99694.59;;;7.32;74.81
76632;BME280;65526;48.578;-4.520;2022-12-29T01:24:23;99933.09;;;8.72;75.53
76632;BME280;65526;48.578;-4.520;2022-12-29T01:26:51;100033.25;;;9.02;76.18
76632;BME280;65526;48.578;-4.520;2022-12-29T01:29:18;99544.13;;;6.15;76.29
76632;BME280;65526;48.578;-4.520;2022-12-29T01:31:47;99921.56;;;8.86;76.63
76632;BME280;65526;48.578;-4.520;2022-12-29T01:34:15;99900.13;;;8.67;77.23
76632;BME280;65526;48.578;-4.520;2022-12-29T01:36:41;100157.44;;;10.38;76.87
76632;BME280;65526;48.578;-4.520;2022-12-29T01:39:08;99907.16;;;8.49;77.22
76632;BME280;65526;48.578;-4.520;2022-12-29T01:41:34;99483.38;;;5.87;77.03
76632;BME280;65526;48.578;-4.520;2022-12-29T01:44:01;99931.03;;;8.69;77.63
76632;BME280;65526;48.578;-4.520;2022-12-29T01:51:35;99923.25;;;8.15;77.47
76632;BME280;65526;48.578;-4.520;2022-12-29T01:54:04;100193.16;;;10.20;76.92
76632;BME280;65526;48.578;-4.520;2022-12-29T01:56:33;99756.13;;;7.17;77.31
76632;BME280;65526;48.578;-4.520;2022-12-29T01:59:04;100199.44;;;10.17;78.15
76632;BME280;65526;48.578;-4.520;2022-12-29T02:01:32;99631.59;;;6.02;77.38
76632;BME280;65526;48.578;-4.520;2022-12-29T02:04:01;99970.44;;;8.47;77.58
76632;BME280;65526;48.578;-4.520;2022-12-29T02:06:39;99462.47;;;5.34;77.26
76632;BME280;65526;48.578;-4.520;2022-12-29T02:09:08;99809.53;;;7.33;77.56
76632;BME280;65526;48.578;-4.520;2022-12-29T02:11:35;99984.16;;;8.87;77.87
76632;BME280;65526;48.578;-4.520;2022-12-29T02:14:08;99896.97;;;8.09;77.07
76632;BME280;65526;48.578;-4.520;2022-12-29T02:20:11;99956.25;;;8.48;76.88
76632;BME280;65526;48.578;-4.520;2022-12-29T02:31:33;99874.56;;;7.99;76.90
76632;BME280;65526;48.578;-4.520;2022-12-29T02:39:39;100234.59;;;10.44;77.50
76632;BME280;65526;48.578;-4.520;2022-12-29T02:42:17;100246.16;;;10.46;77.01
76632;BME280;65526;48.578;-4.520;2022-12-29T02:45:04;100132.91;;;9.73;76.90
76632;BME280;65526;48.578;-4.520;2022-12-29T02:50:23;100255.41;;;10.35;75.47
76632;BME280;65526;48.578;-4.520;2022-12-29T02:52:56;100284.28;;;10.30;75.53
76632;BME280;65526;48.578;-4.520;2022-12-29T02:55:23;100315.06;;;10.25;76.22
76632;BME280;65526;48.578;-4.520;2022-12-29T03:01:22;100270.63;;;10.25;76.99
76632;BME280;65526;48.578;-4.520;2022-12-29T03:04:12;100114.97;;;9.24;77.06
76632;BME280;65526;48.578;-4.520;2022-12-29T03:07:00;100283.41;;;10.14;77.06
76632;BME280;65526;48.578;-4.520;2022-12-29T03:09:47;100279.69;;;10.22;76.29
76632;BME280;65526;48.578;-4.520;2022-12-29T03:12:31;100108.69;;;8.67;75.27
76632;BME280;65526;48.578;-4.520;2022-12-29T03:15:24;100012.81;;;8.23;75.55
76632;BME280;65526;48.578;-4.520;2022-12-29T03:18:17;100058.03;;;8.83;73.97
76632;BME280;65526;48.578;-4.520;2022-12-29T03:20:50;100290.88;;;10.25;73.77
76632;BME280;65526;48.578;-4.520;2022-12-29T03:23:19;99847.91;;;7.50;73.87
76632;BME280;65526;48.578;-4.520;2022-12-29T03:25:51;99926.09;;;7.63;73.94
76632;BME280;65526;48.578;-4.520;2022-12-29T03:28:28;100059.19;;;8.66;73.96
76632;BME280;65526;48.578;-4.520;2022-12-29T03:30:57;100339.09;;;10.33;74.66
76632;BME280;65526;48.578;-4.520;2022-12-29T03:33:27;99605.19;;;5.89;73.84
76632;BME280;65526;48.578;-4.520;2022-12-29T03:36:01;99893.34;;;7.37;73.77
76632;BME280;65526;48.578;-4.520;2022-12-29T03:38:47;100307.84;;;10.36;74.13
76632;BME280;65526;48.578;-4.520;2022-12-29T03:41:20;100387.94;;;10.34;74.66
76632;BME280;65526;48.578;-4.520;2022-12-29T03:43:48;100305.06;;;10.36;74.84
76632;BME280;65526;48.578;-4.520;2022-12-29T03:46:15;100241.13;;;10.05;75.13
76632;BME280;65526;48.578;-4.520;2022-12-29T03:48:42;99556.38;;;5.65;74.98
76632;BME280;65526;48.578;-4.520;2022-12-29T03:51:09;99790.22;;;7.09;75.85
76632;BME280;65526;48.578;-4.520;2022-12-29T03:53:36;100064.38;;;8.67;76.05
76632;BME280;65526;48.578;-4.520;2022-12-29T03:56:02;100351.47;;;10.36;76.21
76632;BME280;65526;48.578;-4.520;2022-12-29T03:58:29;99545.47;;;5.44;75.55
76632;BME280;65526;48.578;-4.520;2022-12-29T04:01:04;99870.84;;;7.51;75.09
76632;BME280;65526;48.578;-4.520;2022-12-29T04:03:34;100161.84;;;8.85;75.43
76632;BME280;65526;48.578;-4.520;2022-12-29T04:06:00;100087.97;;;8.49;75.34
76632;BME280;65526;48.578;-4.520;2022-12-29T04:08:30;100340.06;;;10.25;76.03
76632;BME280;65526;48.578;-4.520;2022-12-29T04:10:57;100132.00;;;8.94;75.55
76632;BME280;65526;48.578;-4.520;2022-12-29T04:13:24;100004.00;;;8.05;75.70
76632;BME280;65526;48.578;-4.520;2022-12-29T04:15:50;100101.81;;;8.77;76.59
76632;BME280;65526;48.578;-4.520;2022-12-29T04:18:17;100354.94;;;10.32;77.96
76632;BME280;65526;48.578;-4.520;2022-12-29T04:20:45;100037.53;;;8.16;78.93
76632;BME280;65526;48.578;-4.520;2022-12-29T04:23:28;100022.53;;;7.77;80.76
76632;BME280;65526;48.578;-4.520;2022-12-29T04:25:54;99556.13;;;4.64;81.05
76632;BME280;65526;48.578;-4.520;2022-12-29T04:28:21;99577.78;;;4.66;81.48
76632;BME280;65526;48.578;-4.520;2022-12-29T04:31:02;99841.44;;;6.09;81.55
76632;BME280;65526;48.578;-4.520;2022-12-29T04:33:34;100429.56;;;9.26;82.94
76632;BME280;65526;48.578;-4.520;2022-12-29T04:36:01;100048.13;;;7.13;82.69
76632;BME280;65526;48.578;-4.520;2022-12-29T04:38:28;100048.31;;;6.96;82.90
76632;BME280;65526;48.578;-4.520;2022-12-29T04:40:54;100142.94;;;7.50;83.25
76632;BME280;65526;48.578;-4.520;2022-12-29T04:43:23;100104.69;;;6.62;83.52
76632;BME280;65526;48.578;-4.520;2022-12-29T04:46:19;99842.25;;;5.44;83.56
76632;BME280;65526;48.578;-4.520;2022-12-29T04:49:08;99724.78;;;4.65;83.58
76632;BME280;65526;48.578;-4.520;2022-12-29T04:51:55;100166.63;;;6.94;83.73
76632;BME280;65526;48.578;-4.520;2022-12-29T04:54:22;99831.75;;;5.37;83.72
76632;BME280;65526;48.578;-4.520;2022-12-29T04:56:55;100121.34;;;7.07;82.46
76632;BME280;65526;48.578;-4.520;2022-12-29T04:59:23;100102.59;;;6.80;82.04
76632;BME280;65526;48.578;-4.520;2022-12-29T05:01:53;99855.53;;;5.42;81.25
76632;BME280;65526;48.578;-4.520;2022-12-29T05:04:20;99882.34;;;5.53;80.89
76632;BME280;65526;48.578;-4.520;2022-12-29T05:06:47;100431.88;;;8.63;79.39
76632;BME280;65526;48.578;-4.520;2022-12-29T05:09:13;99640.44;;;3.98;79.69
76632;BME280;65526;48.578;-4.520;2022-12-29T05:11:40;99946.00;;;5.81;80.30
76632;BME280;65526;48.578;-4.520;2022-12-29T05:14:08;99661.88;;;4.13;79.61
76632;BME280;65526;48.578;-4.520;2022-12-29T05:16:35;99622.38;;;3.68;80.27
76632;BME280;65526;48.578;-4.520;2022-12-29T05:19:02;100280.78;;;7.60;80.31
76632;BME280;65526;48.578;-4.520;2022-12-29T05:21:30;99894.94;;;5.42;80.45
76632;BME280;65526;48.578;-4.520;2022-12-29T05:23:58;99902.88;;;5.44;80.58
76632;BME280;65526;48.578;-4.520;2022-12-29T05:26:25;99598.78;;;3.67;80.34
76632;BME280;65526;48.578;-4.520;2022-12-29T05:28:59;99612.25;;;3.51;80.47
76632;BME280;65526;48.578;-4.520;2022-12-29T05:31:26;99906.53;;;5.48;80.82
76632;BME280;65526;48.578;-4.520;2022-12-29T05:33:53;99938.75;;;5.56;80.62
76632;BME280;65526;48.578;-4.520;2022-12-29T05:36:19;99587.25;;;3.73;80.46
76632;BME280;65526;48.578;-4.520;2022-12-29T05:38:49;100440.38;;;8.46;81.11
76632;BME280;65526;48.578;-4.520;2022-12-29T05:41:17;100214.41;;;7.60;81.09
76632;BME280;65526;48.578;-4.520;2022-12-29T05:44:02;99661.25;;;4.08;79.72
76632;BME280;65526;48.578;-4.520;2022-12-29T05:46:28;100089.78;;;6.75;78.60
76632;BME280;65526;48.578;-4.520;2022-12-29T05:49:16;100045.63;;;6.42;77.93
76632;BME280;65526;48.578;-4.520;2022-12-29T05:52:18;99761.50;;;4.39;77.69
76632;BME280;65526;48.578;-4.520;2022-12-29T05:54:44;99920.84;;;5.83;77.50
76632;BME280;65526;48.578;-4.520;2022-12-29T05:57:14;100169.16;;;7.32;76.33
76632;BME280;65526;48.578;-4.520;2022-12-29T05:59:43;99958.13;;;5.89;76.64
76632;BME280;65526;48.578;-4.520;2022-12-29T06:02:10;99987.16;;;6.28;76.29
76632;BME280;65526;48.578;-4.520;2022-12-29T06:04:37;100489.78;;;9.01;77.03
76632;BME280;65526;48.578;-4.520;2022-12-29T06:07:03;100145.19;;;7.24;75.38
76632;BME280;65526;48.578;-4.520;2022-12-29T06:09:38;99681.88;;;4.22;72.60
76632;BME280;65526;48.578;-4.520;2022-12-29T06:12:05;99611.28;;;4.06;73.99
76632;BME280;65526;48.578;-4.520;2022-12-29T06:14:32;100286.63;;;8.16;74.25
76632;BME280;65526;48.578;-4.520;2022-12-29T06:17:00;99642.16;;;4.32;74.11
76632;BME280;65526;48.578;-4.520;2022-12-29T06:19:26;100236.03;;;7.46;74.13
76632;BME280;65526;48.578;-4.520;2022-12-29T06:21:53;100278.16;;;7.88;74.11
76632;BME280;65526;48.578;-4.520;2022-12-29T06:24:20;99896.03;;;6.04;74.19
76632;BME280;65526;48.578;-4.520;2022-12-29T06:26:46;100154.56;;;7.55;74.81
76632;BME280;65526;48.578;-4.520;2022-12-29T06:29:13;100099.16;;;6.95;74.51
76632;BME280;65526;48.578;-4.520;2022-12-29T06:31:44;99607.91;;;4.29;74.36
76632;BME280;65526;48.578;-4.520;2022-12-29T06:34:14;100306.38;;;8.26;74.54
76632;BME280;65526;48.578;-4.520;2022-12-29T06:36:41;100070.50;;;6.87;74.60
76632;BME280;65526;48.578;-4.520;2022-12-29T06:39:07;99915.97;;;5.88;75.13
76632;BME280;65526;48.578;-4.520;2022-12-29T06:41:34;100216.34;;;7.47;76.05
76632;BME280;65526;48.578;-4.520;2022-12-29T06:44:33;99993.50;;;6.08;76.11
76632;BME280;65526;48.578;-4.520;2022-12-29T06:47:05;100023.59;;;6.33;76.11
76632;BME280;65526;48.578;-4.520;2022-12-29T06:49:31;99726.13;;;4.59;76.80
76632;BME280;65526;48.578;-4.520;2022-12-29T06:51:58;99717.66;;;4.14;76.73
76632;BME280;65526;48.578;-4.520;2022-12-29T06:54:26;100163.22;;;7.09;76.94
76632;BME280;65526;48.578;-4.520;2022-12-29T06:56:53;100221.69;;;7.32;77.23
76632;BME280;65526;48.578;-4.520;2022-12-29T06:59:19;99775.34;;;4.81;77.38
76632;BME280;65526;48.578;-4.520;2022-12-29T07:01:45;100202.09;;;7.25;77.43
76632;BME280;65526;48.578;-4.520;2022-12-29T07:04:12;100512.88;;;9.18;78.19
76632;BME280;65526;48.578;-4.520;2022-12-29T07:06:38;99954.50;;;5.97;77.19
76632;BME280;65526;48.578;-4.520;2022-12-29T07:09:07;100280.72;;;7.81;77.06
76632;BME280;65526;48.578;-4.520;2022-12-29T07:11:35;100225.63;;;7.43;77.67
76632;BME280;65526;48.578;-4.520;2022-12-29T07:14:02;100207.66;;;7.37;77.24
76632;BME280;65526;48.578;-4.520;2022-12-29T07:16:29;99993.38;;;6.04;76.62
76632;BME280;65526;48.578;-4.520;2022-12-29T07:18:56;100015.81;;;6.15;76.92
76632;BME280;65526;48.578;-4.520;2022-12-29T07:21:25;99993.13;;;5.97;78.52
76632;BME280;65526;48.578;-4.520;2022-12-29T07:23:51;100314.66;;;7.36;78.83
76632;BME280;65526;48.578;-4.520;2022-12-29T07:26:17;99688.41;;;3.80;78.66
76632;BME280;65526;48.578;-4.520;2022-12-29T07:28:44;100056.44;;;5.55;78.58
76632;BME280;65526;48.578;-4.520;2022-12-29T07:31:16;100526.41;;;8.62;79.20
76632;BME280;65526;48.578;-4.520;2022-12-29T07:33:44;100306.13;;;7.41;79.52
76632;BME280;65526;48.578;-4.520;2022-12-29T07:36:12;99764.34;;;3.84;79.53
76632;BME280;65526;48.578;-4.520;2022-12-29T07:38:38;100257.78;;;6.73;79.91
76632;BME280;65526;48.578;-4.520;2022-12-29T07:41:05;100235.00;;;6.97;80.12
76632;BME280;65526;48.578;-4.520;2022-12-29T07:43:31;100051.25;;;5.83;80.34
76632;BME280;65526;48.578;-4.520;2022-12-29T07:46:16;100218.22;;;6.81;80.40
76632;BME280;65526;48.578;-4.520;2022-12-29T07:48:43;100544.88;;;8.70;80.24
76632;BME280;65526;48.578;-4.520;2022-12-29T07:51:09;100387.38;;;7.28;78.97
76632;BME280;65526;48.578;-4.520;2022-12-29T07:53:36;100288.91;;;7.03;77.05
76632;BME280;65526;48.578;-4.520;2022-12-29T07:56:06;100449.13;;;8.15;77.84
76632;BME280;65526;48.578;-4.520;2022-12-29T07:58:32;100240.59;;;6.67;78.18
76632;BME280;65526;48.578;-4.520;2022-12-29T08:00:58;99613.03;;;3.22;78.37
76632;BME280;65526;48.578;-4.520;2022-12-29T08:03:25;99983.91;;;5.43;78.71
76632;BME280;65526;48.578;-4.520;2022-12-29T08:05:52;100112.34;;;5.94;79.15
76632;BME280;65526;48.578;-4.520;2022-12-29T08:08:18;99797.72;;;4.12;79.50
76632;BME280;65526;48.578;-4.520;2022-12-29T08:10:46;99973.97;;;5.50;79.63
76632;BME280;65526;48.578;-4.520;2022-12-29T08:13:12;100048.59;;;5.95;79.60
76632;BME280;65526;48.578;-4.520;2022-12-29T08:15:39;100361.31;;;7.38;79.62
76632;BME280;65526;48.578;-4.520;2022-12-29T08:18:05;100143.19;;;6.46;79.95
76632;BME280;65526;48.578;-4.520;2022-12-29T08:20:32;100325.59;;;7.33;79.57
76632;BME280;65526;48.578;-4.520;2022-12-29T08:22:58;100056.28;;;5.90;79.68
76632;BME280;65526;48.578;-4.520;2022-12-29T08:25:24;99870.53;;;4.53;78.64
76632;BME280;65526;48.578;-4.520;2022-12-29T08:27:51;100119.13;;;5.67;78.41
76632;BME280;65526;48.578;-4.520;2022-12-29T08:30:17;100346.19;;;7.35;78.22
76632;BME280;65526;48.578;-4.520;2022-12-29T08:32:44;100279.53;;;7.16;77.20
76632;BME280;65526;48.578;-4.520;2022-12-29T08:35:10;100559.81;;;8.90;76.47
76632;BME280;65526;48.578;-4.520;2022-12-29T08:37:36;100441.81;;;7.99;77.24
76632;BME280;65526;48.578;-4.520;2022-12-29T08:40:03;99765.16;;;3.85;76.54
76632;BME280;65526;48.578;-4.520;2022-12-29T08:42:31;100209.50;;;6.29;75.68
76632;BME280;65526;48.578;-4.520;2022-12-29T08:44:58;100635.19;;;9.16;75.25
76632;BME280;65526;48.578;-4.520;2022-12-29T08:47:25;99763.31;;;4.06;74.60
76632;BME280;65526;48.578;-4.520;2022-12-29T08:49:51;100309.13;;;7.15;74.13
76632;BME280;65526;48.578;-4.520;2022-12-29T08:52:18;100627.94;;;9.24;73.57
76632;BME280;65526;48.578;-4.520;2022-12-29T08:54:44;100308.84;;;7.50;73.45
76632;BME280;65526;48.578;-4.520;2022-12-29T08:57:11;100046.69;;;5.87;72.42
76632;BME280;65526;48.578;-4.520;2022-12-29T08:59:50;100108.16;;;6.17;73.23
76632;BME280;65526;48.578;-4.520;2022-12-29T09:02:17;100658.50;;;9.36;71.81
76632;BME280;65526;48.578;-4.520;2022-12-29T09:04:44;100395.88;;;7.85;71.71
76632;BME280;65526;48.578;-4.520;2022-12-29T09:07:10;100270.78;;;7.14;71.72
76632;BME280;65526;48.578;-4.520;2022-12-29T09:09:36;99969.09;;;4.97;71.43
76632;BME280;65526;48.578;-4.520;2022-12-29T09:12:03;99705.47;;;3.94;71.88
76632;BME280;65526;48.578;-4.520;2022-12-29T09:14:29;100158.78;;;6.42;71.57
76632;BME280;65526;48.578;-4.520;2022-12-29T09:16:56;99931.69;;;4.96;72.70
76632;BME280;65526;48.578;-4.520;2022-12-29T09:19:41;100068.56;;;6.34;71.26
76632;BME280;65526;48.578;-4.520;2022-12-29T09:22:07;100141.63;;;6.57;72.02
76632;BME280;65526;48.578;-4.520;2022-12-29T09:24:34;100384.84;;;8.30;72.83
76632;BME280;65526;48.578;-4.520;2022-12-29T09:27:00;100623.50;;;9.56;73.25
76632;BME280;65526;48.578;-4.520;2022-12-29T09:29:26;100369.47;;;8.21;73.29
76632;BME280;65526;48.578;-4.520;2022-12-29T09:31:53;100346.63;;;7.79;74.11
76632;BME280;65526;48.578;-4.520;2022-12-29T09:34:19;100291.34;;;7.25;73.27
76632;BME280;65526;48.578;-4.520;2022-12-29T09:36:46;99981.97;;;5.14;74.25
76632;BME280;65526;48.578;-4.520;2022-12-29T09:39:12;99947.66;;;5.11;74.71
76632;BME280;65526;48.578;-4.520;2022-12-29T09:41:45;100135.88;;;6.21;74.80
76632;BME280;65526;48.578;-4.520;2022-12-29T09:47:28;100285.81;;;7.25;76.25
76632;BME280;65526;48.578;-4.520;2022-12-29T09:50:01;100671.47;;;9.56;76.32
76632;BME280;65526;48.578;-4.520;2022-12-29T09:52:35;100681.28;;;9.53;76.89
76632;BME280;65526;48.578;-4.520;2022-12-29T09:55:08;99953.75;;;5.17;76.89
76632;BME280;65526;48.578;-4.520;2022-12-29T09:57:49;100669.72;;;9.51;76.97
76632;BME280;65526;48.578;-4.520;2022-12-29T10:00:21;100258.19;;;6.84;76.73
76632;BME280;65526;48.578;-4.520;2022-12-29T10:02:50;100420.09;;;8.21;76.99
76632;BME280;65526;48.578;-4.520;2022-12-29T10:10:34;100405.53;;;7.79;77.48
76632;BME280;65526;48.578;-4.520;2022-12-29T10:15:49;100724.91;;;9.77;76.73
76632;BME280;65526;48.578;-4.520;2022-12-29T10:24:04;100018.16;;;5.33;74.86
76632;BME280;65526;48.578;-4.520;2022-12-29T10:26:39;99959.41;;;4.91;75.49
76632;BME280;65526;48.578;-4.520;2022-12-29T10:29:27;100378.75;;;7.50;76.46
76632;BME280;65526;48.578;-4.520;2022-12-29T10:32:06;100339.19;;;6.96;76.62
76632;BME280;65526;48.578;-4.520;2022-12-29T10:34:38;100503.34;;;8.16;76.36
76632;BME280;65526;48.578;-4.520;2022-12-29T10:37:18;100035.19;;;4.89;77.14
76632;BME280;65526;48.578;-4.520;2022-12-29T10:39:53;100398.16;;;7.21;79.41
76632;BME280;65526;48.578;-4.520;2022-12-29T10:42:26;100720.16;;;9.00;80.75
76632;BME280;65526;48.578;-4.520;2022-12-29T10:44:54;100242.97;;;5.98;80.45
76632;BME280;65526;48.578;-4.520;2022-12-29T10:47:25;99978.25;;;3.82;80.97
76632;BME280;65526;48.578;-4.520;2022-12-29T10:49:54;100486.06;;;7.07;81.23
76632;BME280;65526;48.578;-4.520;2022-12-29T10:52:22;100009.91;;;4.31;81.15
76632;BME280;65526;48.578;-4.520;2022-12-29T10:55:03;99828.94;;;3.35;81.23
76632;BME280;65526;48.578;-4.520;2022-12-29T10:57:41;100709.16;;;8.91;82.33
76632;BME280;65526;48.578;-4.520;2022-12-29T11:00:14;100703.22;;;9.01;82.65
76632;BME280;65526;48.578;-4.520;2022-12-29T11:05:57;100582.50;;;8.38;82.29
76632;BME280;65526;48.578;-4.520;2022-12-29T11:08:38;100216.66;;;6.30;81.53
76632;BME280;65526;48.578;-4.520;2022-12-29T11:11:09;99816.13;;;3.65;81.30
76632;BME280;65526;48.578;-4.520;2022-12-29T11:13:57;100256.88;;;6.60;82.39
76632;BME280;65526;48.578;-4.520;2022-12-29T11:16:33;100518.16;;;8.00;82.22
76632;BME280;65526;48.578;-4.520;2022-12-29T11:19:01;100073.69;;;5.44;81.63
76632;BME280;65526;48.578;-4.520;2022-12-29T11:21:38;100153.78;;;5.39;81.00
76632;BME280;65526;48.578;-4.520;2022-12-29T11:24:23;99991.38;;;4.66;80.36
76632;BME280;65526;48.578;-4.520;2022-12-29T11:26:53;100727.38;;;9.46;80.87
76632;BME280;65526;48.578;-4.520;2022-12-29T11:29:28;100033.34;;;5.39;80.24
76632;BME280;65526;48.578;-4.520;2022-12-29T11:31:57;100163.00;;;6.19;79.86
76632;BME280;65526;48.578;-4.520;2022-12-29T11:37:12;100203.56;;;6.68;79.56
76632;BME280;65526;48.578;-4.520;2022-12-29T11:42:21;100432.25;;;8.08;79.22
76632;BME280;65526;48.578;-4.520;2022-12-29T11:44:49;100609.00;;;9.38;79.34
76632;BME280;65526;48.578;-4.520;2022-12-29T11:47:36;100094.91;;;6.31;78.73
76632;BME280;65526;48.578;-4.520;2022-12-29T11:50:04;100214.56;;;7.10;78.64
76632;BME280;65526;48.578;-4.520;2022-12-29T11:52:35;99894.16;;;5.12;77.64
76632;BME280;65526;48.578;-4.520;2022-12-29T11:55:13;100401.59;;;8.34;78.36
76632;BME280;65526;48.578;-4.520;2022-12-29T11:57:43;100290.81;;;7.11;77.76
76632;BME280;65526;48.578;-4.520;2022-12-29T12:00:19;100206.50;;;7.05;77.92
76632;BME280;65526;48.578;-4.520;2022-12-29T12:02:48;100701.44;;;10.11;78.37
76632;BME280;65526;48.578;-4.520;2022-12-29T12:10:43;100596.19;;;9.33;76.48
76632;BME280;65526;48.578;-4.520;2022-12-29T12:16:26;100402.44;;;8.47;76.73
76632;BME280;65526;48.578;-4.520;2022-12-29T12:19:14;100208.66;;;7.20;77.07
76632;BME280;65526;48.578;-4.520;2022-12-29T12:21:51;99994.31;;;5.87;76.99
76632;BME280;65526;48.578;-4.520;2022-12-29T12:24:34;100539.09;;;9.32;77.56
76632;BME280;65526;48.578;-4.520;2022-12-29T12:30:03;100158.91;;;6.66;78.06
76632;BME280;65526;48.578;-4.520;2022-12-29T12:32:54;100699.72;;;10.31;78.62
76632;BME280;65526;48.578;-4.520;2022-12-29T12:35:44;100701.50;;;10.23;78.95
76632;BME280;65526;48.578;-4.520;2022-12-29T12:41:11;100194.06;;;6.78;78.40
76632;BME280;65526;48.578;-4.520;2022-12-29T13:00:20;99995.63;;;5.81;78.21
76632;BME280;65526;48.578;-4.520;2022-12-29T13:08:38;100687.66;;;10.51;78.15
76632;BME280;65526;48.578;-4.520;2022-12-29T13:14:36;100538.88;;;9.62;76.46
76632;BME280;65526;48.578;-4.520;2022-12-29T13:22:20;100078.94;;;6.37;74.00
76632;BME280;65526;48.578;-4.520;2022-12-29T13:30:45;100677.56;;;10.59;75.48
76632;BME280;65526;48.578;-4.520;2022-12-29T13:36:05;99913.38;;;5.83;75.52
76632;BME280;65526;48.578;-4.520;2022-12-29T13:38:41;100024.22;;;6.72;75.07
76632;BME280;65526;48.578;-4.520;2022-12-29T13:43:44;100716.34;;;10.67;75.16
76632;BME280;65526;48.578;-4.520;2022-12-29T13:46:16;100008.84;;;6.50;74.23
76632;BME280;65526;48.578;-4.520;2022-12-29T13:48:52;100108.59;;;6.94;74.46
76632;BME280;65526;48.578;-4.520;2022-12-29T13:51:21;100180.00;;;7.37;74.94
76632;BME280;65526;48.578;-4.520;2022-12-29T13:56:42;99883.72;;;5.80;75.05
76632;BME280;65526;48.578;-4.520;2022-12-29T14:05:26;100648.94;;;10.70;75.08
76632;BME280;65526;48.578;-4.520;2022-12-29T14:08:00;100380.03;;;9.00;74.35
76632;BME280;65526;48.578;-4.520;2022-12-29T14:10:35;100342.88;;;8.65;74.68
76632;BME280;65526;48.578;-4.520;2022-12-29T14:13:14;100392.06;;;8.92;73.90
76632;BME280;65526;48.578;-4.520;2022-12-29T14:15:43;100284.16;;;7.90;72.34
76632;BME280;65526;48.578;-4.520;2022-12-29T14:18:19;100478.66;;;9.62;73.52
76632;BME280;65526;48.578;-4.520;2022-12-29T14:23:40;100659.91;;;10.79;72.81
76632;BME280;65526;48.578;-4.520;2022-12-29T14:28:41;99880.41;;;5.87;72.95
76632;BME280;65526;48.578;-4.520;2022-12-29T14:34:14;100308.72;;;8.49;74.27
76632;BME280;65526;48.578;-4.520;2022-12-29T14:39:05;100471.50;;;9.25;74.80
76632;BME280;65526;48.578;-4.520;2022-12-29T14:44:34;100185.16;;;7.83;74.64
76632;BME280;65526;48.578;-4.520;2022-12-29T14:47:18;100713.66;;;10.83;75.19
76632;BME280;65526;48.578;-4.520;2022-12-29T14:49:46;100727.41;;;10.92;75.82
76632;BME280;65526;48.578;-4.520;2022-12-29T14:52:25;100718.06;;;11.12;75.92
76632;BME280;65526;48.578;-4.520;2022-12-29T14:55:26;100011.78;;;6.66;75.39
76632;BME280;65526;48.578;-4.520;2022-12-29T14:57:58;99921.47;;;6.21;75.48
76632;BME280;65526;48.578;-4.520;2022-12-29T15:00:30;100234.94;;;7.83;75.01
76632;BME280;65526;48.578;-4.520;2022-12-29T15:03:05;100082.91;;;7.26;74.58
76632;BME280;65526;48.578;-4.520;2022-12-29T15:05:48;100027.41;;;6.74;74.27
76632;BME280;65526;48.578;-4.520;2022-12-29T15:08:29;100157.00;;;7.57;74.24
76632;BME280;65526;48.578;-4.520;2022-12-29T15:13:39;100206.03;;;7.93;74.91
76632;BME280;65526;48.578;-4.520;2022-12-29T15:16:33;99899.00;;;5.99;74.58
76632;BME280;65526;48.578;-4.520;2022-12-29T15:19:04;100393.88;;;8.64;74.24
76632;BME280;65526;48.578;-4.520;2022-12-29T15:21:47;100684.84;;;10.76;74.72
76632;BME280;65526;48.578;-4.520;2022-12-29T15:24:16;100425.31;;;9.04;75.23
76632;BME280;65526;48.578;-4.520;2022-12-29T15:26:45;99907.41;;;5.81;74.31
76632;BME280;65526;48.578;-4.520;2022-12-29T15:29:39;100148.56;;;6.96;74.86
76632;BME280;65526;48.578;-4.520;2022-12-29T15:34:45;100727.69;;;10.75;75.58